Terminal Aerodrome Forecast
Issued by NWS Charleston, WV

Current Version | Previous Version | Graphics & Text | Print | Product List | Glossary On
Versions: 1 2 3 4 5 6 7 8 9 10 11 12 13 14 15 16 17 18 19 20 21
932
FTUS41 KRLX 221510 AAB
TAFEKN
TAF AMD
KEKN 221510Z 2215/2312 35007KT 6SM -SHRA OVC008
      TEMPO 2218/2221 2SM +SHRA OVC007
     FM222100 36006KT 3SM +SHRA OVC008
     FM230000 08005KT P6SM OVC015=

USA.gov is the U.S. government's official web portal to all federal, state and local government web resources and services.